createdAt,value
2022-10-17T00:00:42.386Z,3.02
2022-10-17T00:03:09.485Z,2.91
2022-10-17T00:05:40.938Z,2.92
2022-10-17T00:08:07.662Z,3.04
2022-10-17T00:10:34.449Z,3.09
2022-10-17T00:13:01.049Z,2.90
2022-10-17T00:15:36.782Z,2.78
2022-10-17T00:18:03.639Z,2.91
2022-10-17T00:20:30.645Z,2.95
2022-10-17T00:22:57.481Z,2.87
2022-10-17T00:25:24.274Z,2.88
2022-10-17T00:27:51.066Z,2.84
2022-10-17T00:30:17.848Z,2.76
2022-10-17T00:32:44.537Z,2.68
2022-10-17T00:35:11.282Z,2.69
2022-10-17T00:37:37.914Z,2.67
2022-10-17T00:40:06.613Z,2.62
2022-10-17T00:42:33.301Z,2.50
2022-10-17T00:45:05.655Z,2.58
2022-10-17T00:47:33.762Z,2.42
2022-10-17T00:52:32.367Z,2.61
2022-10-17T00:55:13.779Z,2.60
2022-10-17T00:57:40.953Z,2.57
2022-10-17T01:00:10.412Z,2.60
2022-10-17T01:02:37.454Z,2.59
2022-10-17T01:05:04.537Z,2.64
2022-10-17T01:07:34.698Z,2.62
2022-10-17T01:10:05.463Z,2.59
2022-10-17T01:12:31.992Z,2.55
2022-10-17T01:15:08.037Z,2.62
2022-10-17T01:17:34.565Z,2.62
2022-10-17T01:20:04.197Z,2.66
2022-10-17T01:22:50.629Z,2.64
2022-10-17T01:25:23.308Z,2.71
2022-10-17T01:27:56.492Z,2.80
2022-10-17T01:30:29.147Z,2.87
2022-10-17T01:33:13.111Z,2.85
2022-10-17T01:36:47.663Z,2.93
2022-10-17T01:39:47.767Z,3.00
2022-10-17T01:42:18.983Z,2.92
2022-10-17T01:44:55.674Z,2.85
2022-10-17T01:47:27.334Z,2.80
2022-10-17T01:49:55.310Z,2.81
2022-10-17T01:52:28.068Z,2.81
2022-10-17T01:55:09.367Z,2.81
2022-10-17T01:57:42.616Z,2.70
2022-10-17T02:00:13.055Z,2.52
2022-10-17T02:02:40.383Z,2.65
2022-10-17T02:05:07.314Z,2.70
2022-10-17T02:07:34.328Z,2.76
2022-10-17T02:10:00.929Z,2.72
2022-10-17T02:12:30.518Z,2.87
2022-10-17T02:15:19.136Z,2.86
2022-10-17T02:17:56.813Z,2.94
2022-10-17T02:20:29.549Z,3.02
2022-10-17T02:22:58.775Z,3.07
2022-10-17T02:25:36.161Z,3.07
2022-10-17T02:28:24.459Z,3.00
2022-10-17T02:30:57.129Z,2.90
2022-10-17T02:33:47.722Z,3.06
2022-10-17T02:36:19.533Z,3.12
2022-10-17T02:38:46.575Z,3.09
2022-10-17T02:41:16.706Z,3.06
2022-10-17T02:43:45.504Z,3.11
2022-10-17T02:46:20.865Z,3.19
2022-10-17T02:48:52.083Z,3.07
2022-10-17T02:51:24.741Z,3.12
2022-10-17T02:54:16.163Z,3.18
2022-10-17T02:57:15.440Z,3.20
2022-10-17T02:59:43.277Z,3.22
2022-10-17T03:02:09.914Z,3.23
2022-10-17T03:04:36.589Z,3.16
2022-10-17T03:07:03.245Z,3.17
2022-10-17T03:09:29.872Z,3.22
2022-10-17T03:11:56.634Z,3.28
2022-10-17T03:14:23.221Z,3.22
2022-10-17T03:16:49.915Z,3.20
2022-10-17T03:19:16.550Z,3.24
2022-10-17T03:21:43.191Z,3.25
2022-10-17T03:24:09.803Z,3.18
2022-10-17T03:26:36.595Z,3.09
2022-10-17T03:29:03.955Z,3.01
2022-10-17T03:31:30.640Z,3.02
2022-10-17T03:33:57.237Z,2.89
2022-10-17T03:36:23.887Z,2.96
2022-10-17T03:38:54.662Z,2.82
2022-10-17T03:41:21.304Z,2.80
2022-10-17T03:43:47.903Z,2.69
2022-10-17T03:46:14.616Z,2.51
2022-10-17T03:48:41.306Z,2.37
2022-10-17T03:51:09.931Z,2.38
2022-10-17T03:53:36.562Z,2.36
2022-10-17T03:56:18.162Z,2.30
2022-10-17T03:58:44.957Z,2.16
2022-10-17T04:01:14.645Z,1.99
2022-10-17T04:03:42.455Z,1.95
2022-10-17T04:06:11.562Z,1.96
2022-10-17T04:08:38.683Z,1.99
2022-10-17T04:11:07.584Z,2.02
2022-10-17T04:13:34.846Z,2.06
2022-10-17T04:16:05.986Z,1.99
2022-10-17T04:18:33.264Z,1.91
2022-10-17T04:21:04.170Z,1.89
2022-10-17T04:23:30.988Z,1.92
2022-10-17T04:25:58.463Z,1.86
2022-10-17T04:28:26.384Z,1.93
2022-10-17T04:31:00.882Z,2.05
2022-10-17T04:33:28.016Z,2.07
2022-10-17T04:36:01.842Z,2.18
2022-10-17T04:38:29.340Z,2.26
2022-10-17T04:41:03.138Z,2.14
2022-10-17T04:43:34.413Z,2.27
2022-10-17T04:46:02.992Z,2.26
2022-10-17T04:48:30.117Z,2.42
2022-10-17T04:51:01.791Z,2.51
2022-10-17T04:53:30.689Z,2.58
2022-10-17T04:55:57.309Z,2.64
2022-10-17T04:58:24.212Z,2.73
2022-10-17T05:00:50.873Z,2.78
2022-10-17T05:03:17.504Z,2.83
2022-10-17T05:05:44.106Z,2.86
2022-10-17T05:08:11.528Z,2.94
2022-10-17T05:10:43.909Z,2.96
2022-10-17T05:13:11.164Z,3.07
2022-10-17T05:15:38.623Z,3.13
2022-10-17T05:18:06.204Z,3.25
2022-10-17T05:20:33.399Z,3.26
2022-10-17T05:23:00.752Z,3.37
2022-10-17T05:25:27.356Z,3.43
2022-10-17T05:27:54.491Z,3.47
2022-10-17T05:30:21.362Z,3.56
2022-10-17T05:32:47.944Z,3.58
2022-10-17T05:35:14.631Z,3.73
2022-10-17T05:37:41.233Z,3.76
2022-10-17T05:40:08.472Z,3.86
2022-10-17T05:42:35.222Z,3.83
2022-10-17T05:45:01.914Z,3.96
2022-10-17T05:47:28.854Z,4.05
2022-10-17T05:49:55.831Z,4.15
2022-10-17T05:52:22.508Z,4.10
2022-10-17T05:54:49.433Z,4.20
2022-10-17T05:57:16.098Z,4.41
2022-10-17T05:59:42.694Z,4.52
2022-10-17T06:02:11.482Z,4.66
2022-10-17T06:04:38.084Z,4.80
2022-10-17T06:07:05.185Z,4.90
2022-10-17T06:09:31.811Z,5.03
2022-10-17T06:11:58.473Z,5.05
2022-10-17T06:14:25.708Z,5.10
2022-10-17T06:16:52.689Z,4.98
2022-10-17T06:19:19.493Z,4.92
2022-10-17T06:21:46.599Z,4.97
2022-10-17T06:24:13.438Z,5.16
2022-10-17T06:26:40.214Z,5.36
2022-10-17T06:29:07.490Z,5.34
2022-10-17T06:31:34.226Z,5.86
2022-10-17T06:34:00.911Z,6.03
2022-10-17T06:36:27.670Z,6.16
2022-10-17T06:38:54.333Z,6.20
2022-10-17T06:41:21.129Z,6.32
2022-10-17T06:43:47.916Z,6.41
2022-10-17T06:46:16.183Z,6.56
2022-10-17T06:48:42.928Z,6.66
2022-10-17T06:51:12.563Z,6.71
2022-10-17T06:53:40.894Z,6.79
2022-10-17T06:56:08.871Z,6.91
2022-10-17T06:58:40.019Z,7.05
2022-10-17T07:03:41.447Z,7.21
2022-10-17T07:06:08.635Z,7.06
2022-10-17T07:08:35.398Z,6.99
2022-10-17T07:11:13.821Z,7.14
2022-10-17T07:13:42.069Z,7.42
2022-10-17T07:16:09.902Z,7.68
2022-10-17T07:18:37.113Z,7.19
2022-10-17T07:21:04.345Z,7.52
2022-10-17T07:23:32.021Z,8.09
2022-10-17T07:26:02.952Z,8.15
2022-10-17T07:28:31.818Z,8.20
2022-10-17T07:31:04.323Z,8.08
2022-10-17T07:33:31.149Z,8.34
2022-10-17T07:36:02.391Z,8.36
2022-10-17T07:38:29.061Z,8.51
2022-10-17T07:41:01.723Z,8.68
2022-10-17T07:43:29.664Z,8.70
2022-10-17T07:45:56.823Z,8.75
2022-10-17T07:48:24.556Z,8.83
2022-10-17T07:50:51.435Z,8.98
2022-10-17T07:53:18.460Z,9.06
2022-10-17T07:55:46.495Z,9.18
2022-10-17T07:58:14.241Z,9.40
2022-10-17T08:00:41.081Z,9.44
2022-10-17T08:03:07.869Z,9.43
2022-10-17T08:05:34.595Z,9.47
2022-10-17T08:08:01.192Z,9.57
2022-10-17T08:10:29.416Z,9.63
2022-10-17T08:12:57.713Z,9.71
2022-10-17T08:15:31.702Z,9.81
2022-10-17T08:17:58.997Z,9.96
2022-10-17T08:20:25.640Z,9.97
2022-10-17T08:22:55.868Z,10.14
2022-10-17T08:25:22.942Z,10.07
2022-10-17T08:27:50.279Z,10.15
2022-10-17T08:30:17.577Z,10.30
2022-10-17T08:32:44.242Z,10.08
2022-10-17T08:35:11.497Z,10.11
2022-10-17T08:37:38.588Z,10.04
2022-10-17T08:40:05.859Z,10.24
2022-10-17T08:42:54.084Z,10.34
2022-10-17T08:45:32.827Z,10.44
2022-10-17T08:48:02.054Z,10.54
2022-10-17T08:50:42.961Z,10.76
2022-10-17T08:53:17.973Z,10.89
2022-10-17T08:55:47.545Z,11.01
2022-10-17T08:58:24.984Z,10.93
2022-10-17T09:00:55.717Z,11.06
2022-10-17T09:03:29.946Z,11.15
2022-10-17T09:06:11.599Z,11.20
2022-10-17T09:09:22.823Z,11.27
2022-10-17T09:11:52.117Z,11.36
2022-10-17T09:14:32.275Z,11.45
2022-10-17T09:17:07.938Z,11.50
2022-10-17T09:19:50.393Z,11.52
2022-10-17T09:22:23.118Z,11.51
2022-10-17T09:24:57.666Z,11.60
2022-10-17T09:27:44.881Z,11.64
2022-10-17T09:30:45.468Z,11.72
2022-10-17T09:33:34.688Z,11.86
2022-10-17T09:36:17.780Z,11.82
2022-10-17T09:38:56.132Z,11.75
2022-10-17T09:41:44.232Z,11.90
2022-10-17T09:44:18.087Z,12.03
2022-10-17T09:47:14.276Z,12.06
2022-10-17T09:49:43.101Z,12.07
2022-10-17T09:52:15.645Z,12.08
2022-10-17T09:55:07.030Z,12.26
2022-10-17T09:57:56.168Z,12.51
2022-10-17T10:00:26.776Z,12.44
2022-10-17T10:03:11.535Z,12.36
2022-10-17T10:05:38.515Z,12.35
2022-10-17T10:08:13.867Z,12.61
2022-10-17T10:10:43.476Z,12.71
2022-10-17T10:13:12.866Z,12.69
2022-10-17T10:15:41.687Z,12.74
2022-10-17T10:18:35.803Z,12.89
2022-10-17T10:21:20.339Z,12.94
2022-10-17T10:24:09.753Z,12.98
2022-10-17T10:26:42.994Z,12.99
2022-10-17T10:29:33.158Z,12.89
2022-10-17T10:32:11.941Z,13.09
2022-10-17T10:34:50.465Z,13.04
2022-10-17T10:37:20.535Z,13.03
2022-10-17T10:39:53.452Z,13.09
2022-10-17T10:42:39.727Z,13.18
2022-10-17T10:45:29.362Z,13.29
2022-10-17T10:48:14.138Z,13.14
2022-10-17T10:50:45.386Z,13.24
2022-10-17T10:53:40.990Z,13.39
2022-10-17T10:56:37.054Z,13.37
2022-10-17T10:59:09.547Z,13.33
2022-10-17T11:01:51.060Z,13.42
2022-10-17T11:04:44.410Z,13.31
2022-10-17T11:07:20.243Z,13.27
2022-10-17T11:10:05.772Z,13.33
2022-10-17T11:15:40.731Z,13.43
2022-10-17T11:18:45.132Z,13.54
2022-10-17T11:21:17.167Z,13.66
2022-10-17T11:23:48.740Z,13.75
2022-10-17T11:30:00.880Z,13.36
2022-10-17T11:32:35.014Z,13.44
2022-10-17T11:35:18.296Z,13.85
2022-10-17T11:37:50.541Z,13.80
2022-10-17T11:40:31.330Z,13.74
2022-10-17T11:43:01.480Z,13.54
2022-10-17T11:45:34.226Z,13.79
2022-10-17T11:48:08.078Z,13.90
2022-10-17T11:54:05.040Z,14.08
2022-10-17T11:56:46.809Z,13.94
2022-10-17T11:59:40.213Z,14.05
2022-10-17T12:02:17.336Z,14.12
2022-10-17T12:05:17.599Z,14.17
2022-10-17T12:07:59.337Z,14.29
2022-10-17T12:10:53.930Z,14.27
2022-10-17T12:13:30.324Z,14.21
2022-10-17T12:15:58.253Z,14.23
2022-10-17T12:18:27.496Z,14.25
2022-10-17T12:20:58.399Z,14.33
2022-10-17T12:23:29.535Z,14.39
2022-10-17T12:26:04.509Z,14.26
2022-10-17T12:28:32.324Z,14.35
2022-10-17T12:31:02.850Z,14.39
2022-10-17T12:33:58.374Z,14.38
2022-10-17T12:36:30.841Z,14.43
2022-10-17T12:39:03.539Z,14.46
2022-10-17T12:41:39.276Z,14.48
2022-10-17T12:44:26.989Z,14.43
2022-10-17T12:47:19.450Z,14.52
2022-10-17T12:49:53.136Z,14.47
2022-10-17T12:52:31.620Z,14.48
2022-10-17T12:55:13.026Z,14.49
2022-10-17T12:57:56.866Z,14.48
2022-10-17T13:00:34.574Z,14.51
2022-10-17T13:03:12.819Z,14.44
2022-10-17T13:05:43.752Z,14.36
2022-10-17T13:08:16.993Z,14.41
2022-10-17T13:10:47.091Z,14.49
2022-10-17T13:13:19.342Z,14.43
2022-10-17T13:15:50.729Z,14.47
2022-10-17T13:18:25.848Z,14.49
2022-10-17T13:21:15.680Z,14.55
2022-10-17T13:23:42.408Z,14.47
2022-10-17T13:26:20.560Z,14.43
2022-10-17T13:29:11.659Z,14.46
2022-10-17T13:31:40.606Z,14.49
2022-10-17T13:34:23.662Z,14.43
2022-10-17T13:37:19.659Z,14.45
2022-10-17T13:40:11.420Z,14.43
2022-10-17T13:42:38.578Z,14.38
2022-10-17T13:45:17.406Z,14.34
2022-10-17T13:47:44.355Z,14.31
2022-10-17T13:50:43.257Z,14.16
2022-10-17T13:53:18.952Z,14.17
2022-10-17T13:56:09.446Z,14.10
2022-10-17T13:58:45.903Z,14.11
2022-10-17T14:01:14.274Z,14.09
2022-10-17T14:03:48.545Z,14.10
2022-10-17T14:06:16.947Z,14.09
2022-10-17T14:09:04.614Z,14.02
2022-10-17T14:11:35.344Z,13.96
2022-10-17T14:14:04.195Z,13.95
2022-10-17T14:16:40.253Z,13.72
2022-10-17T14:19:23.394Z,13.66
2022-10-17T14:21:54.112Z,13.64
2022-10-17T14:24:23.801Z,13.67
2022-10-17T14:26:55.740Z,13.61
2022-10-17T14:29:24.593Z,13.48
2022-10-17T14:31:58.362Z,13.31
2022-10-17T14:34:29.738Z,13.25
2022-10-17T14:36:57.442Z,13.18
2022-10-17T14:39:25.330Z,13.16
2022-10-17T14:41:52.489Z,13.07
2022-10-17T14:44:21.108Z,12.93
2022-10-17T14:46:51.284Z,12.94
2022-10-17T14:49:25.118Z,12.86
2022-10-17T14:52:18.561Z,12.77
2022-10-17T14:54:47.586Z,12.74
2022-10-17T14:57:34.522Z,12.72
2022-10-17T15:00:01.323Z,12.65
2022-10-17T15:02:29.791Z,12.54
2022-10-17T15:04:56.765Z,12.57
2022-10-17T15:07:24.067Z,12.54
2022-10-17T15:09:52.042Z,12.45
2022-10-17T15:12:21.250Z,12.46
2022-10-17T15:14:51.869Z,12.41
2022-10-17T15:17:21.874Z,12.39
2022-10-17T15:19:50.676Z,12.39
2022-10-17T15:22:18.359Z,12.38
2022-10-17T15:24:48.366Z,12.29
2022-10-17T15:27:26.525Z,12.13
2022-10-17T15:29:53.395Z,12.20
2022-10-17T15:32:20.224Z,12.09
2022-10-17T15:34:46.889Z,11.99
2022-10-17T15:37:24.696Z,11.94
2022-10-17T15:39:54.174Z,11.90
2022-10-17T15:42:22.506Z,11.66
2022-10-17T15:44:50.353Z,11.61
2022-10-17T15:47:31.424Z,11.59
2022-10-17T15:50:00.160Z,11.46
2022-10-17T15:52:27.430Z,11.50
2022-10-17T15:54:56.430Z,11.40
2022-10-17T15:57:28.211Z,11.34
2022-10-17T15:59:56.359Z,11.23
2022-10-17T16:02:23.806Z,11.28
2022-10-17T16:04:51.418Z,11.37
2022-10-17T16:07:19.206Z,11.31
2022-10-17T16:09:46.174Z,10.79
2022-10-17T16:12:19.430Z,11.18
2022-10-17T16:14:46.083Z,11.27
2022-10-17T16:17:15.248Z,11.20
2022-10-17T16:19:42.894Z,11.09
2022-10-17T16:22:21.397Z,11.34
2022-10-17T16:24:48.030Z,11.26
2022-10-17T16:27:16.911Z,11.17
2022-10-17T16:29:43.645Z,11.19
2022-10-17T16:32:10.342Z,11.18
2022-10-17T16:34:37.044Z,11.15
2022-10-17T16:37:03.707Z,11.10
2022-10-17T16:39:30.412Z,11.01
2022-10-17T16:41:58.626Z,10.98
2022-10-17T16:44:25.749Z,10.92
2022-10-17T16:46:52.345Z,10.87
2022-10-17T16:49:19.026Z,10.84
2022-10-17T16:51:45.660Z,10.88
2022-10-17T16:54:12.358Z,10.82
2022-10-17T16:56:39.173Z,10.80
2022-10-17T16:59:05.851Z,10.74
2022-10-17T17:01:32.462Z,10.75
2022-10-17T17:03:59.348Z,10.66
2022-10-17T17:06:28.898Z,10.70
2022-10-17T17:08:56.094Z,10.63
2022-10-17T17:11:25.000Z,10.59
2022-10-17T17:13:52.184Z,10.61
2022-10-17T17:16:24.517Z,10.53
2022-10-17T17:18:56.129Z,10.57
2022-10-17T17:21:22.929Z,10.56
2022-10-17T17:23:49.727Z,10.47
2022-10-17T17:26:22.161Z,10.48
2022-10-17T17:28:49.695Z,10.60
2022-10-17T17:31:19.471Z,10.52
2022-10-17T17:33:46.980Z,10.52
2022-10-17T17:36:17.405Z,10.37
2022-10-17T17:38:44.890Z,10.36
2022-10-17T17:41:13.909Z,10.19
2022-10-17T17:43:41.408Z,10.44
2022-10-17T17:46:08.461Z,10.29
2022-10-17T17:48:41.674Z,10.24
2022-10-17T17:51:09.826Z,10.27
2022-10-17T17:53:37.012Z,10.26
2022-10-17T17:56:16.617Z,10.18
2022-10-17T17:58:48.561Z,10.14
2022-10-17T18:01:20.326Z,10.12
2022-10-17T18:03:47.889Z,10.05
2022-10-17T18:06:14.810Z,9.95
2022-10-17T18:08:45.239Z,9.95
2022-10-17T18:11:12.137Z,9.86
2022-10-17T18:13:38.787Z,9.89
2022-10-17T18:16:13.247Z,9.83
2022-10-17T18:18:41.726Z,9.95
2022-10-17T18:21:09.215Z,9.76
2022-10-17T18:23:46.986Z,9.82
2022-10-17T18:26:14.678Z,9.76
2022-10-17T18:28:42.888Z,9.69
2022-10-17T18:31:35.505Z,9.63
2022-10-17T18:34:03.158Z,9.72
2022-10-17T18:36:30.952Z,9.73
2022-10-17T18:38:59.590Z,9.88
2022-10-17T18:41:27.083Z,9.96
2022-10-17T18:43:54.800Z,9.98
2022-10-17T18:46:27.431Z,9.89
2022-10-17T18:48:54.239Z,9.74
2022-10-17T18:51:22.587Z,9.70
2022-10-17T18:53:58.722Z,9.63
2022-10-17T18:56:26.005Z,9.58
2022-10-17T18:58:52.726Z,9.75
2022-10-17T19:01:22.221Z,9.75
2022-10-17T19:03:50.446Z,9.78
2022-10-17T19:06:19.203Z,9.72
2022-10-17T19:08:46.487Z,9.77
2022-10-17T19:11:18.890Z,9.71
2022-10-17T19:13:47.199Z,9.74
2022-10-17T19:16:22.166Z,9.70
2022-10-17T19:18:52.925Z,9.85
2022-10-17T19:21:21.987Z,9.75
2022-10-17T19:23:57.713Z,9.57
2022-10-17T19:26:24.715Z,9.71
2022-10-17T19:28:53.592Z,9.81
2022-10-17T19:31:26.444Z,9.70
2022-10-17T19:33:54.833Z,9.70
2022-10-17T19:36:23.063Z,9.77
2022-10-17T19:38:52.991Z,9.76
2022-10-17T19:41:19.780Z,9.74
2022-10-17T19:43:46.437Z,9.81
2022-10-17T19:46:15.742Z,9.77
2022-10-17T19:48:43.277Z,9.82
2022-10-17T19:51:14.939Z,9.98
2022-10-17T19:53:42.200Z,10.00
2022-10-17T19:56:09.928Z,10.00
2022-10-17T19:58:43.958Z,9.95
2022-10-17T20:01:21.965Z,10.00
2022-10-17T20:03:49.831Z,10.00
2022-10-17T20:06:17.378Z,9.91
2022-10-17T20:08:44.124Z,9.84
2022-10-17T20:11:28.084Z,9.93
2022-10-17T20:13:55.771Z,9.99
2022-10-17T20:16:28.028Z,9.99
2022-10-17T20:18:57.019Z,10.00
2022-10-17T20:21:31.659Z,10.34
2022-10-17T20:23:59.841Z,10.02
2022-10-17T20:26:42.861Z,9.84
2022-10-17T20:29:15.654Z,9.70
2022-10-17T20:31:44.701Z,9.80
2022-10-17T20:34:16.320Z,9.82
2022-10-17T20:36:43.427Z,9.78
2022-10-17T20:39:12.205Z,9.70
2022-10-17T20:41:39.000Z,9.71
2022-10-17T20:44:07.010Z,9.66
2022-10-17T20:46:38.309Z,9.76
2022-10-17T20:49:10.876Z,9.96
2022-10-17T20:51:37.552Z,10.00
2022-10-17T20:54:04.396Z,9.95
2022-10-17T20:56:33.984Z,9.99
2022-10-17T20:59:05.204Z,10.54
2022-10-17T21:01:33.715Z,10.85
2022-10-17T21:04:15.833Z,10.58
2022-10-17T21:06:51.953Z,10.62
2022-10-17T21:09:18.935Z,10.88
2022-10-17T21:11:45.800Z,10.63
2022-10-17T21:14:12.781Z,10.77
2022-10-17T21:16:41.314Z,10.96
2022-10-17T21:19:07.961Z,10.88
2022-10-17T21:21:37.248Z,10.79
2022-10-17T21:24:06.549Z,10.41
2022-10-17T21:26:35.260Z,10.61
2022-10-17T21:29:05.684Z,10.79
2022-10-17T21:31:34.669Z,11.06
2022-10-17T21:34:06.072Z,10.70
2022-10-17T21:36:32.702Z,10.69
2022-10-17T21:38:59.364Z,10.84
2022-10-17T21:41:28.717Z,10.63
2022-10-17T21:43:57.773Z,10.40
2022-10-17T21:46:25.122Z,10.22
2022-10-17T21:48:52.281Z,10.46
2022-10-17T21:51:21.215Z,10.25
2022-10-17T21:53:48.266Z,10.21
2022-10-17T21:56:20.256Z,10.01
2022-10-17T21:58:47.417Z,10.27
2022-10-17T22:01:20.353Z,10.44
2022-10-17T22:03:49.534Z,10.58
2022-10-17T22:09:12.010Z,10.43
2022-10-17T22:11:38.683Z,10.51
2022-10-17T22:14:07.750Z,10.44
2022-10-17T22:16:35.021Z,10.49
2022-10-17T22:19:06.157Z,10.44
2022-10-17T22:21:34.959Z,10.38
2022-10-17T22:24:03.417Z,10.48
2022-10-17T22:26:31.885Z,10.00
2022-10-17T22:28:58.664Z,10.08
2022-10-17T22:31:25.723Z,10.02
2022-10-17T22:33:52.695Z,9.97
2022-10-17T22:36:19.614Z,10.11
2022-10-17T22:38:46.298Z,10.15
2022-10-17T22:41:12.966Z,9.93
2022-10-17T22:43:39.650Z,9.80
2022-10-17T22:46:07.400Z,9.87
2022-10-17T22:48:34.421Z,9.57
2022-10-17T22:51:01.488Z,9.57
2022-10-17T22:53:29.798Z,9.51
2022-10-17T22:56:00.732Z,9.38
2022-10-17T22:58:28.716Z,9.25
2022-10-17T23:00:56.018Z,9.09
2022-10-17T23:03:23.966Z,9.07
2022-10-17T23:05:51.086Z,8.98
2022-10-17T23:08:18.766Z,8.88
2022-10-17T23:10:46.491Z,8.91
2022-10-17T23:13:14.201Z,8.92
2022-10-17T23:15:40.872Z,8.92
2022-10-17T23:18:07.871Z,8.85
2022-10-17T23:20:34.664Z,8.75
2022-10-17T23:23:01.284Z,8.75
2022-10-17T23:25:27.926Z,8.67
2022-10-17T23:27:54.730Z,8.63
2022-10-17T23:30:21.345Z,8.75
2022-10-17T23:32:48.083Z,8.80
2022-10-17T23:35:15.020Z,8.68
2022-10-17T23:37:41.840Z,8.79
2022-10-17T23:40:09.284Z,8.82
2022-10-17T23:42:35.881Z,8.64
2022-10-17T23:45:02.893Z,8.74
2022-10-17T23:47:31.286Z,8.72
2022-10-17T23:49:58.410Z,8.55
2022-10-17T23:52:25.206Z,8.47
2022-10-17T23:54:51.875Z,8.40
2022-10-17T23:57:18.580Z,8.41
2022-10-17T23:59:45.233Z,8.33
